Time;durP1;ratioP1;P1;durP2;ratioP2;P2;SDS_P1;SDS_P2;PMS_P1;PMS_P2;Temp;Humidity;BMP_temperature;BMP_pressure;BME280_temperature;BME280_humidity;BME280_pressure;Samples;Min_cycle;Max_cycle;Signal;HPM_P1;HPM_P2
2023/05/01 00:00:17;;;;;;;12.10;10.35;;;8.60;99.90;;;;;;5037029;28;20033;-73
2023/05/01 00:02:42;;;;;;;11.18;9.85;;;8.60;99.90;;;;;;5020322;28;20033;-73
2023/05/01 00:05:08;;;;;;;13.15;10.63;;;8.70;99.90;;;;;;5035961;28;20871;-73
2023/05/01 00:07:34;;;;;;;12.13;10.35;;;8.60;99.90;;;;;;5012167;28;20140;-73
2023/05/01 00:10:00;;;;;;;11.32;10.10;;;8.60;99.90;;;;;;5029423;28;20525;-73
2023/05/01 00:12:25;;;;;;;11.48;10.13;;;8.60;99.90;;;;;;5017001;28;20038;-73
2023/05/01 00:14:52;;;;;;;10.75;9.68;;;8.60;99.90;;;;;;5000697;28;20464;-73
2023/05/01 00:17:18;;;;;;;12.80;11.00;;;8.60;99.90;;;;;;5026161;28;20041;-73
2023/05/01 00:19:43;;;;;;;13.27;10.50;;;8.60;99.90;;;;;;5046978;28;20068;-73
2023/05/01 00:22:09;;;;;;;13.45;10.90;;;8.60;99.90;;;;;;5020323;28;20082;-73
2023/05/01 00:24:34;;;;;;;12.85;11.40;;;8.50;99.90;;;;;;5015387;28;20069;-73
2023/05/01 00:27:00;;;;;;;13.35;10.90;;;8.50;99.90;;;;;;5032881;28;20037;-73
2023/05/01 00:29:26;;;;;;;11.80;10.60;;;8.50;99.90;;;;;;5036708;28;20064;-73
2023/05/01 00:31:53;;;;;;;12.52;11.23;;;8.50;99.90;;;;;;5019787;28;20034;-73
2023/05/01 00:34:18;;;;;;;14.73;11.45;;;8.40;99.90;;;;;;5011811;28;20053;-73
2023/05/01 00:36:44;;;;;;;13.18;11.50;;;8.40;99.90;;;;;;5020560;28;20042;-73
2023/05/01 00:39:10;;;;;;;13.48;11.68;;;8.30;99.90;;;;;;5036511;28;20044;-73
2023/05/01 00:41:35;;;;;;;12.20;11.00;;;8.20;99.90;;;;;;5036254;28;20447;-74
2023/05/01 00:44:02;;;;;;;12.73;11.57;;;8.10;99.90;;;;;;5034891;28;20029;-74
2023/05/01 00:46:29;;;;;;;13.88;12.57;;;8.00;99.90;;;;;;5036591;28;20552;-74
2023/05/01 00:48:56;;;;;;;14.23;12.82;;;7.80;99.90;;;;;;5020457;28;20037;-74
2023/05/01 00:51:22;;;;;;;14.55;12.98;;;7.70;99.90;;;;;;5020129;28;20037;-74
2023/05/01 00:53:48;;;;;;;14.45;12.95;;;7.60;99.90;;;;;;5036336;28;20111;-74
2023/05/01 00:56:14;;;;;;;14.15;12.70;;;7.40;99.90;;;;;;5036522;28;20124;-74
2023/05/01 00:58:40;;;;;;;13.60;12.30;;;7.30;99.90;;;;;;5029949;28;20037;-74
2023/05/01 01:01:07;;;;;;;13.70;12.38;;;7.30;99.90;;;;;;5033319;28;20038;-74
2023/05/01 01:03:33;;;;;;;14.75;12.70;;;7.10;99.90;;;;;;5032083;28;20034;-73
2023/05/01 01:06:23;;;;;;;15.18;13.63;;;7.10;99.90;;;;;;5032278;28;20095;-73
2023/05/01 01:09:07;;;;;;;15.00;13.60;;;7.00;99.90;;;;;;5018611;28;20041;-73
2023/05/01 01:11:43;;;;;;;13.55;12.35;;;6.90;99.90;;;;;;5032501;28;20489;-73
2023/05/01 01:14:18;;;;;;;14.60;12.98;;;6.70;99.90;;;;;;5028675;28;20068;-73
2023/05/01 01:16:58;;;;;;;14.60;13.23;;;6.70;99.90;;;;;;5033607;28;20037;-73
2023/05/01 01:19:39;;;;;;;17.25;15.45;;;6.60;99.90;;;;;;5033338;28;20051;-73
2023/05/01 01:22:14;;;;;;;15.57;14.15;;;6.50;99.90;;;;;;5016913;28;20037;-73
2023/05/01 01:24:52;;;;;;;14.85;13.45;;;6.50;99.90;;;;;;5016755;28;20041;-73
2023/05/01 01:27:39;;;;;;;16.42;14.90;;;6.50;99.90;;;;;;5014343;28;20547;-73
2023/05/01 01:30:11;;;;;;;16.95;15.10;;;6.40;99.90;;;;;;5029446;28;20045;-73
2023/05/01 01:32:53;;;;;;;15.57;14.07;;;6.30;99.90;;;;;;5032865;28;20041;-73
2023/05/01 01:35:23;;;;;;;16.25;14.75;;;6.30;99.90;;;;;;5033429;28;20099;-73
2023/05/01 01:38:08;;;;;;;16.35;14.70;;;6.20;99.90;;;;;;5032731;28;20056;-73
2023/05/01 01:40:42;;;;;;;18.48;16.38;;;6.20;99.90;;;;;;5032847;28;20041;-73
2023/05/01 01:43:12;;;;;;;15.88;14.25;;;6.10;99.90;;;;;;5031796;28;20049;-73
2023/05/01 01:45:42;;;;;;;17.60;15.85;;;6.10;99.90;;;;;;5025343;28;20496;-73
2023/05/01 01:48:13;;;;;;;18.13;16.40;;;6.10;99.90;;;;;;5032969;28;20513;-73
2023/05/01 01:50:40;;;;;;;17.52;15.88;;;6.00;99.90;;;;;;5032615;28;20508;-73
2023/05/01 01:53:10;;;;;;;18.38;16.65;;;6.00;99.90;;;;;;5031546;28;20424;-73
2023/05/01 01:55:38;;;;;;;17.45;15.65;;;6.00;99.90;;;;;;5041447;28;20127;-73
2023/05/01 01:58:05;;;;;;;16.67;15.18;;;5.90;99.90;;;;;;5032477;28;20116;-73
2023/05/01 02:00:33;;;;;;;17.45;15.77;;;5.90;99.90;;;;;;5015978;28;20073;-73
2023/05/01 02:03:00;;;;;;;17.63;15.93;;;5.90;99.90;;;;;;5032485;28;20354;-73
2023/05/01 02:05:27;;;;;;;19.17;17.20;;;5.80;99.90;;;;;;5032277;28;20041;-73
2023/05/01 02:07:53;;;;;;;21.25;19.10;;;5.80;99.90;;;;;;5014909;28;20083;-73
2023/05/01 02:10:21;;;;;;;19.00;17.20;;;5.70;99.90;;;;;;5006004;28;20469;-73
2023/05/01 02:12:49;;;;;;;18.27;15.90;;;5.70;99.90;;;;;;5028892;28;20152;-73
2023/05/01 02:15:17;;;;;;;16.20;14.57;;;5.70;99.90;;;;;;5012302;28;20048;-73
2023/05/01 02:17:44;;;;;;;15.98;14.38;;;5.80;99.90;;;;;;5012779;28;20041;-73
2023/05/01 02:20:11;;;;;;;15.27;13.68;;;5.80;99.90;;;;;;5004154;28;20034;-73
2023/05/01 02:22:41;;;;;;;15.93;13.40;;;5.90;99.90;;;;;;5026954;28;20513;-73
2023/05/01 02:25:11;;;;;;;14.95;13.00;;;6.10;99.90;;;;;;5012255;28;20057;-73
2023/05/01 02:27:40;;;;;;;16.67;12.77;;;6.20;99.90;;;;;;5029052;28;20128;-73
2023/05/01 02:30:07;;;;;;;14.95;13.45;;;6.30;99.90;;;;;;5012316;28;20132;-73
2023/05/01 02:32:32;;;;;;;14.25;12.85;;;6.40;99.90;;;;;;5011994;28;20050;-73
2023/05/01 02:34:59;;;;;;;14.30;12.80;;;6.40;99.90;;;;;;5019200;28;20041;-73
2023/05/01 02:37:24;;;;;;;15.02;13.38;;;6.40;99.90;;;;;;5023428;28;20045;-73
2023/05/01 02:39:50;;;;;;;15.82;13.70;;;6.30;99.90;;;;;;5015134;28;20040;-73
2023/05/01 02:42:18;;;;;;;14.60;13.02;;;6.30;99.90;;;;;;5015303;28;20046;-74
2023/05/01 02:44:55;;;;;;;15.23;13.30;;;6.20;99.90;;;;;;5031495;28;20559;-74
2023/05/01 02:47:22;;;;;;;13.70;12.25;;;6.00;99.90;;;;;;5031606;28;20505;-74
2023/05/01 02:49:49;;;;;;;14.80;13.27;;;6.00;99.90;;;;;;5029920;28;20046;-74
2023/05/01 02:52:17;;;;;;;13.25;11.90;;;5.80;99.90;;;;;;5023353;28;20442;-74
2023/05/01 02:54:44;;;;;;;14.55;13.05;;;5.80;99.90;;;;;;5031209;28;20075;-74
2023/05/01 02:57:10;;;;;;;15.23;13.02;;;5.70;99.90;;;;;;5031605;28;20073;-73
2023/05/01 02:59:36;;;;;;;16.23;14.57;;;5.60;99.90;;;;;;5030683;28;20397;-73
2023/05/01 03:02:02;;;;;;;16.60;14.90;;;5.50;99.90;;;;;;5029319;28;20064;-74
2023/05/01 03:04:28;;;;;;;15.82;14.18;;;5.50;99.90;;;;;;5014548;28;20513;-73
2023/05/01 03:06:54;;;;;;;15.20;13.60;;;5.50;99.90;;;;;;5015003;28;20045;-73
2023/05/01 03:09:20;;;;;;;14.68;13.30;;;5.40;99.90;;;;;;5014658;28;20037;-73
2023/05/01 03:11:46;;;;;;;15.32;13.73;;;5.40;99.90;;;;;;5030550;28;20087;-73
2023/05/01 03:14:12;;;;;;;18.02;14.82;;;5.30;99.90;;;;;;5006066;28;20041;-73
2023/05/01 03:16:37;;;;;;;14.95;13.55;;;5.30;99.90;;;;;;5031291;28;20045;-73
2023/05/01 03:19:04;;;;;;;15.02;13.43;;;5.20;99.90;;;;;;5030983;28;20040;-73
2023/05/01 03:21:30;;;;;;;13.95;12.63;;;5.20;99.90;;;;;;5014480;28;20030;-73
2023/05/01 03:23:56;;;;;;;16.92;15.15;;;5.10;99.90;;;;;;5030058;28;20095;-73
2023/05/01 03:26:22;;;;;;;18.08;15.57;;;5.10;99.90;;;;;;5024915;28;20471;-73
2023/05/01 03:28:47;;;;;;;16.23;13.88;;;5.10;99.90;;;;;;5029049;28;20037;-73
2023/05/01 03:31:13;;;;;;;16.42;14.73;;;5.00;99.90;;;;;;5014590;28;20102;-73
2023/05/01 03:33:39;;;;;;;15.90;14.30;;;5.00;99.90;;;;;;5029984;28;20045;-73
2023/05/01 03:36:04;;;;;;;17.65;15.70;;;5.10;99.90;;;;;;5030757;28;20072;-73
2023/05/01 03:38:30;;;;;;;18.27;15.55;;;5.00;99.90;;;;;;5030511;28;20048;-73
2023/05/01 03:40:57;;;;;;;18.15;16.13;;;5.00;99.90;;;;;;5030032;28;20583;-73
2023/05/01 03:43:23;;;;;;;18.17;15.55;;;5.00;99.90;;;;;;5022077;28;20091;-73
2023/05/01 03:45:50;;;;;;;16.48;14.77;;;5.00;99.90;;;;;;5030651;28;20045;-73
2023/05/01 03:48:16;;;;;;;17.08;15.23;;;5.00;99.90;;;;;;5030280;28;20048;-73
2023/05/01 03:50:41;;;;;;;21.65;17.50;;;5.00;99.90;;;;;;5014151;28;20041;-73
2023/05/01 03:53:07;;;;;;;17.08;15.35;;;5.00;99.90;;;;;;5030556;28;20056;-73
2023/05/01 03:55:33;;;;;;;17.48;15.45;;;4.90;99.90;;;;;;5030200;28;20385;-73
2023/05/01 03:57:58;;;;;;;16.83;15.13;;;4.90;99.90;;;;;;5023217;28;20107;-73
2023/05/01 04:00:24;;;;;;;17.30;15.50;;;4.80;99.90;;;;;;5012959;28;20388;-73
2023/05/01 04:02:49;;;;;;;16.08;14.40;;;4.80;99.90;;;;;;5013899;28;20563;-73
2023/05/01 04:05:15;;;;;;;17.60;15.30;;;4.80;99.90;;;;;;5030352;28;20068;-73
2023/05/01 04:07:41;;;;;;;15.13;13.55;;;4.80;99.90;;;;;;5040282;28;20431;-73
2023/05/01 04:10:08;;;;;;;18.10;15.65;;;4.80;99.90;;;;;;5014502;28;20092;-73
2023/05/01 04:12:34;;;;;;;15.80;14.27;;;4.80;99.90;;;;;;4994093;28;20048;-73
2023/05/01 04:15:00;;;;;;;19.55;16.33;;;4.80;99.90;;;;;;5010613;28;20034;-73
2023/05/01 04:17:26;;;;;;;17.13;15.23;;;4.80;99.90;;;;;;5027008;28;20034;-73
2023/05/01 04:19:53;;;;;;;18.50;16.25;;;4.80;99.90;;;;;;5027336;28;20034;-73
2023/05/01 04:22:19;;;;;;;18.10;14.70;;;4.80;99.90;;;;;;5037798;28;20048;-73
2023/05/01 04:24:44;;;;;;;15.68;14.07;;;4.80;99.90;;;;;;5016935;28;20046;-73
2023/05/01 04:27:10;;;;;;;16.83;15.02;;;4.80;99.90;;;;;;4994108;28;20041;-73
2023/05/01 04:29:35;;;;;;;19.13;16.25;;;4.90;99.90;;;;;;4994100;28;20046;-73
2023/05/01 04:32:01;;;;;;;18.95;15.65;;;4.90;99.90;;;;;;5026937;28;20559;-73
2023/05/01 04:34:28;;;;;;;18.90;16.05;;;4.90;99.90;;;;;;5019477;28;20046;-73
2023/05/01 04:36:56;;;;;;;19.15;17.00;;;5.00;99.90;;;;;;5019085;28;20034;-73
2023/05/01 04:39:22;;;;;;;16.70;14.93;;;5.10;99.90;;;;;;5045107;28;20072;-73
2023/05/01 04:41:47;;;;;;;20.95;16.00;;;5.30;99.90;;;;;;5030082;28;20072;-73
2023/05/01 04:44:13;;;;;;;19.60;15.30;;;5.40;99.90;;;;;;5030631;28;20123;-73
2023/05/01 04:46:38;;;;;;;18.25;16.27;;;5.50;99.90;;;;;;5034055;28;20120;-73
2023/05/01 04:49:04;;;;;;;21.38;17.45;;;5.60;99.90;;;;;;5016758;28;20033;-73
2023/05/01 04:51:29;;;;;;;18.30;16.40;;;5.60;99.90;;;;;;5025394;28;20056;-73
2023/05/01 04:53:55;;;;;;;18.15;15.50;;;5.70;99.90;;;;;;5033367;28;20414;-73
2023/05/01 04:56:21;;;;;;;17.08;15.20;;;5.80;99.90;;;;;;5034164;28;20119;-73
2023/05/01 04:58:46;;;;;;;18.88;14.75;;;5.80;99.90;;;;;;5033802;28;20034;-73
2023/05/01 05:01:12;;;;;;;16.58;14.68;;;5.90;99.90;;;;;;5032043;28;20045;-73
2023/05/01 05:03:37;;;;;;;17.02;15.23;;;6.00;99.90;;;;;;5041731;28;20410;-73
2023/05/01 05:06:03;;;;;;;16.63;14.73;;;6.10;99.90;;;;;;5025852;28;20049;-73
2023/05/01 05:08:29;;;;;;;15.52;13.65;;;6.20;99.90;;;;;;5013642;28;20069;-73
2023/05/01 05:10:57;;;;;;;17.40;13.52;;;6.30;99.90;;;;;;5030120;28;20576;-73
2023/05/01 05:13:22;;;;;;;14.52;13.00;;;6.40;99.90;;;;;;5037698;28;20041;-73
2023/05/01 05:15:48;;;;;;;17.55;12.48;;;6.60;99.90;;;;;;5025260;28;20049;-73
2023/05/01 05:18:13;;;;;;;18.92;15.60;;;6.80;99.90;;;;;;5033211;28;20053;-73
2023/05/01 05:20:39;;;;;;;14.70;13.13;;;7.00;99.90;;;;;;5031400;28;20116;-73
2023/05/01 05:23:05;;;;;;;17.45;13.75;;;7.10;99.90;;;;;;5019939;28;20088;-73
2023/05/01 05:25:30;;;;;;;15.63;13.40;;;7.20;99.90;;;;;;5032938;28;20045;-74
2023/05/01 05:27:56;;;;;;;15.68;12.85;;;7.30;99.90;;;;;;5049625;28;20036;-73
2023/05/01 05:30:21;;;;;;;17.73;13.43;;;7.40;99.90;;;;;;5030948;28;20521;-73
2023/05/01 05:32:47;;;;;;;14.68;13.25;;;7.50;99.90;;;;;;5024664;28;20072;-73
2023/05/01 05:35:12;;;;;;;17.77;12.52;;;7.60;99.90;;;;;;5032947;28;20424;-73
2023/05/01 05:37:38;;;;;;;14.52;11.48;;;7.70;99.90;;;;;;5031355;28;20512;-73
2023/05/01 05:40:04;;;;;;;13.50;11.38;;;7.90;99.90;;;;;;5045748;23;20038;-75
2023/05/01 05:42:30;;;;;;;12.60;11.35;;;8.00;99.90;;;;;;4977272;28;20493;-75
2023/05/01 05:44:57;;;;;;;14.57;12.93;;;8.10;99.90;;;;;;4977390;28;20048;-75
2023/05/01 05:47:23;;;;;;;13.25;10.82;;;8.20;99.90;;;;;;4993422;28;20046;-75
2023/05/01 05:49:49;;;;;;;14.60;13.07;;;8.30;99.90;;;;;;4977063;28;20057;-75
2023/05/01 05:52:14;;;;;;;12.02;10.82;;;8.50;99.90;;;;;;4977103;28;20035;-75
2023/05/01 05:54:40;;;;;;;13.32;11.63;;;8.60;99.90;;;;;;4975721;28;20453;-75
2023/05/01 05:57:11;;;;;;;13.25;11.75;;;8.70;99.90;;;;;;4976655;28;20073;-75
2023/05/01 05:59:44;;;;;;;16.20;10.88;;;8.90;99.90;;;;;;4977036;28;20186;-75
2023/05/01 06:02:19;;;;;;;16.23;11.13;;;8.90;99.90;;;;;;4985147;28;20125;-76
2023/05/01 06:04:47;;;;;;;12.10;10.70;;;9.10;99.90;;;;;;4992147;28;20577;-74
2023/05/01 06:07:12;;;;;;;12.80;10.65;;;9.20;99.90;;;;;;4992910;28;20046;-76
2023/05/01 06:09:38;;;;;;;12.98;11.15;;;9.20;99.90;;;;;;4993000;28;20042;-74
2023/05/01 06:12:04;;;;;;;12.20;10.43;;;9.30;99.90;;;;;;4993261;28;20048;-76
2023/05/01 06:14:36;;;;;;;11.65;10.23;;;9.50;99.90;;;;;;4975675;28;20039;-78
2023/05/01 06:17:07;;;;;;;11.90;10.15;;;9.80;99.90;;;;;;5001039;28;20057;-75
2023/05/01 06:19:38;;;;;;;13.23;9.98;;;10.30;99.90;;;;;;4992484;28;20060;-75
2023/05/01 06:22:05;;;;;;;13.50;10.10;;;10.70;99.90;;;;;;4992732;28;20570;-75
2023/05/01 06:24:31;;;;;;;12.65;10.23;;;11.10;99.90;;;;;;4992703;28;20502;-75
2023/05/01 06:26:57;;;;;;;11.82;9.68;;;11.30;99.90;;;;;;4992643;28;20046;-75
2023/05/01 06:29:22;;;;;;;13.70;10.13;;;11.30;99.90;;;;;;4992574;28;20041;-76
2023/05/01 06:31:48;;;;;;;12.85;9.80;;;11.30;99.90;;;;;;4976542;28;20097;-75
2023/05/01 06:34:13;;;;;;;11.43;9.15;;;11.30;99.90;;;;;;4992267;28;20113;-75
2023/05/01 06:36:39;;;;;;;13.48;10.07;;;11.20;99.90;;;;;;4976206;28;20041;-75
2023/05/01 06:39:05;;;;;;;11.52;9.63;;;11.30;99.90;;;;;;4976160;28;20046;-75
2023/05/01 06:41:31;;;;;;;12.05;9.23;;;11.40;99.90;;;;;;4993083;28;20053;-75
2023/05/01 06:43:57;;;;;;;11.48;8.73;;;11.40;99.90;;;;;;4976161;28;20096;-75
2023/05/01 06:46:23;;;;;;;10.68;8.30;;;11.50;99.90;;;;;;4976100;28;20050;-75
2023/05/01 06:48:48;;;;;;;10.27;8.63;;;11.50;99.90;;;;;;4992397;28;20061;-75
2023/05/01 06:51:14;;;;;;;13.07;9.55;;;11.50;99.90;;;;;;4976012;28;20039;-75
2023/05/01 06:53:40;;;;;;;12.38;8.90;;;11.60;99.90;;;;;;4991810;28;20050;-75
2023/05/01 06:56:07;;;;;;;10.88;9.68;;;11.60;99.90;;;;;;4992398;28;20705;-75
2023/05/01 06:58:37;;;;;;;11.80;9.45;;;11.60;99.90;;;;;;4992210;28;20550;-75
2023/05/01 07:01:03;;;;;;;13.20;10.48;;;11.60;99.90;;;;;;4975766;28;20077;-75
2023/05/01 07:03:29;;;;;;;13.90;9.10;;;11.70;99.90;;;;;;4991911;28;20082;-75
2023/05/01 07:05:54;;;;;;;11.95;9.30;;;11.70;99.90;;;;;;4991997;28;20122;-75
2023/05/01 07:08:20;;;;;;;11.13;9.20;;;11.70;99.90;;;;;;4991204;28;20106;-75
2023/05/01 07:10:46;;;;;;;10.98;9.20;;;11.70;99.90;;;;;;4975686;28;20560;-75
2023/05/01 07:13:12;;;;;;;11.07;9.63;;;11.60;99.90;;;;;;4991582;28;20046;-75
2023/05/01 07:15:37;;;;;;;11.48;8.93;;;11.60;99.90;;;;;;4991948;28;20455;-75
2023/05/01 07:18:04;;;;;;;11.98;10.02;;;11.50;99.90;;;;;;4991782;28;20546;-75
2023/05/01 07:20:31;;;;;;;11.35;9.75;;;11.50;99.90;;;;;;4975824;28;20130;-75
2023/05/01 07:22:59;;;;;;;12.93;10.18;;;11.40;99.90;;;;;;4991717;28;20041;-75
2023/05/01 07:25:25;;;;;;;14.02;10.55;;;11.50;99.90;;;;;;4991833;28;20060;-75
2023/05/01 07:27:51;;;;;;;12.02;10.48;;;11.40;99.90;;;;;;4991495;28;20520;-75
2023/05/01 07:30:16;;;;;;;12.80;10.60;;;11.40;99.90;;;;;;4991409;28;20049;-75
2023/05/01 07:32:42;;;;;;;15.68;11.27;;;11.40;99.90;;;;;;4975039;28;20508;-75
2023/05/01 07:35:08;;;;;;;11.50;9.10;;;11.50;99.90;;;;;;4991545;28;20042;-75
2023/05/01 07:37:33;;;;;;;11.88;10.73;;;11.50;99.90;;;;;;4992810;28;20065;-75
2023/05/01 07:39:59;;;;;;;13.25;10.75;;;11.60;99.90;;;;;;4975164;28;20034;-75
2023/05/01 07:42:28;;;;;;;13.77;10.35;;;11.70;99.90;;;;;;4991315;28;20097;-75
2023/05/01 07:44:53;;;;;;;12.65;10.18;;;11.90;99.90;;;;;;4991270;28;20042;-75
2023/05/01 07:47:19;;;;;;;14.18;9.95;;;12.10;99.90;;;;;;4991689;28;20101;-75
2023/05/01 07:49:45;;;;;;;11.52;9.77;;;12.20;99.90;;;;;;5007859;28;20057;-75
2023/05/01 07:52:10;;;;;;;10.60;8.50;;;12.40;99.90;;;;;;4992456;28;20122;-75
2023/05/01 07:54:36;;;;;;;11.27;8.38;;;12.60;99.90;;;;;;4990920;28;20050;-76
2023/05/01 07:57:03;;;;;;;12.60;9.52;;;12.70;99.90;;;;;;4975024;28;20038;-75
2023/05/01 07:59:29;;;;;;;10.57;8.75;;;12.80;99.90;;;;;;4991341;28;20042;-75
2023/05/01 08:02:02;;;;;;;10.07;8.57;;;13.00;99.90;;;;;;4974943;28;20140;-75
2023/05/01 08:04:28;;;;;;;11.75;8.30;;;13.10;99.90;;;;;;4990963;28;20054;-75
2023/05/01 08:06:53;;;;;;;10.80;7.90;;;13.20;99.90;;;;;;4991324;28;20104;-75
2023/05/01 08:09:22;;;;;;;8.82;7.30;;;13.40;99.90;;;;;;4991132;28;20053;-75
2023/05/01 08:11:47;;;;;;;9.73;7.97;;;13.60;99.90;;;;;;4975497;28;20046;-74
2023/05/01 08:14:14;;;;;;;8.48;7.35;;;13.70;99.90;;;;;;4974566;28;20050;-74
2023/05/01 08:16:39;;;;;;;10.48;8.00;;;13.80;99.90;;;;;;4991298;28;20042;-74
2023/05/01 08:19:05;;;;;;;8.75;6.95;;;14.00;99.90;;;;;;4992904;28;20049;-74
2023/05/01 08:21:33;;;;;;;9.30;7.60;;;14.40;99.90;;;;;;4979333;28;20439;-74
2023/05/01 08:23:59;;;;;;;11.30;7.40;;;15.00;99.90;;;;;;4994668;28;20068;-74
2023/05/01 08:26:24;;;;;;;9.75;6.88;;;15.70;99.90;;;;;;4994892;28;20061;-74
2023/05/01 08:28:50;;;;;;;11.95;7.03;;;16.30;99.90;;;;;;4978462;28;20076;-74
2023/05/01 08:31:18;;;;;;;9.25;7.32;;;16.60;99.00;;;;;;4994940;28;20042;-74
2023/05/01 08:33:43;;;;;;;9.55;7.50;;;17.00;98.20;;;;;;4994567;28;20486;-74
2023/05/01 08:36:12;;;;;;;10.02;7.47;;;17.30;99.70;;;;;;4978616;28;20053;-75
2023/05/01 08:38:38;;;;;;;9.00;6.57;;;17.60;97.20;;;;;;4994425;28;20074;-74
2023/05/01 08:41:07;;;;;;;9.40;6.88;;;17.90;93.50;;;;;;4995786;28;20116;-74
2023/05/01 08:43:32;;;;;;;8.52;6.47;;;18.30;83.90;;;;;;4994553;28;20082;-74
2023/05/01 08:46:02;;;;;;;6.85;5.90;;;18.70;81.70;;;;;;4995862;28;20120;-74
2023/05/01 08:48:37;;;;;;;8.23;6.63;;;19.00;84.00;;;;;;4994547;28;20034;-74
2023/05/01 08:51:04;;;;;;;7.18;6.22;;;19.20;80.90;;;;;;4994442;28;20046;-74
2023/05/01 08:53:32;;;;;;;8.02;5.95;;;19.50;80.20;;;;;;4993985;28;20046;-74
2023/05/01 08:55:59;;;;;;;7.47;6.00;;;19.70;73.70;;;;;;4994559;28;20050;-74
2023/05/01 08:58:26;;;;;;;7.90;6.28;;;20.10;72.20;;;;;;4994193;28;20042;-74
2023/05/01 09:00:55;;;;;;;9.32;5.90;;;20.30;72.30;;;;;;4978112;28;20127;-75
2023/05/01 09:03:21;;;;;;;8.82;6.30;;;20.60;71.80;;;;;;4978189;28;20081;-75
2023/05/01 09:05:47;;;;;;;8.85;6.38;;;20.90;69.50;;;;;;4994294;28;20054;-74
2023/05/01 09:08:15;;;;;;;7.40;6.30;;;20.60;68.70;;;;;;4994270;28;20122;-74
2023/05/01 09:10:45;;;;;;;9.32;6.20;;;20.20;70.40;;;;;;4977988;28;20376;-74
2023/05/01 09:13:11;;;;;;;8.13;6.65;;;20.00;70.20;;;;;;4994080;28;20495;-74
2023/05/01 09:15:37;;;;;;;8.25;6.47;;;20.00;72.10;;;;;;4977756;28;20517;-74
2023/05/01 09:18:02;;;;;;;8.07;6.18;;;20.10;70.80;;;;;;4993894;28;20042;-74
2023/05/01 09:20:28;;;;;;;7.45;6.15;;;20.10;69.90;;;;;;4977654;28;20042;-75
2023/05/01 09:22:58;;;;;;;8.27;6.68;;;20.20;68.40;;;;;;4993777;28;20092;-75
2023/05/01 09:25:25;;;;;;;8.70;6.13;;;20.30;67.80;;;;;;4977466;28;20053;-74
2023/05/01 09:27:51;;;;;;;9.43;6.28;;;20.30;69.50;;;;;;4977625;28;20448;-75
2023/05/01 09:30:30;;;;;;;8.75;6.80;;;20.60;70.60;;;;;;4994087;28;20046;-74
2023/05/01 09:33:10;;;;;;;7.30;6.15;;;20.80;68.90;;;;;;4993738;28;20046;-74
2023/05/01 09:35:55;;;;;;;6.50;5.53;;;21.20;69.50;;;;;;4977299;28;20045;-74
2023/05/01 09:38:26;;;;;;;7.30;5.65;;;21.70;65.90;;;;;;4994838;28;20034;-75
2023/05/01 09:41:00;;;;;;;7.55;6.03;;;21.90;65.40;;;;;;4993892;28;20446;-74
2023/05/01 09:43:30;;;;;;;8.68;5.50;;;21.90;62.80;;;;;;4993510;28;20038;-75
2023/05/01 09:46:00;;;;;;;7.38;5.38;;;21.70;63.60;;;;;;4993336;28;20053;-75
2023/05/01 09:48:25;;;;;;;8.05;5.10;;;21.70;62.50;;;;;;4977054;28;20046;-75
2023/05/01 09:50:51;;;;;;;7.80;5.25;;;21.80;62.20;;;;;;4977211;28;20410;-75
2023/05/01 09:53:17;;;;;;;9.07;5.45;;;21.80;62.40;;;;;;4977129;28;20050;-75
2023/05/01 09:56:00;;;;;;;7.82;5.70;;;21.90;63.80;;;;;;4977069;28;20049;-75
2023/05/01 09:58:29;;;;;;;8.20;4.97;;;22.30;64.20;;;;;;4977421;28;20083;-75
2023/05/01 10:00:55;;;;;;;7.68;4.50;;;22.60;65.80;;;;;;4977175;28;20090;-75
2023/05/01 10:03:21;;;;;;;6.38;4.30;;;23.10;65.80;;;;;;4993319;28;20043;-75
2023/05/01 10:05:46;;;;;;;6.15;4.25;;;23.20;56.80;;;;;;4976885;28;20041;-75
2023/05/01 10:08:15;;;;;;;5.00;3.65;;;22.80;60.30;;;;;;4976831;28;20196;-74
2023/05/01 10:10:45;;;;;;;5.20;3.55;;;22.70;60.60;;;;;;4993028;28;20034;-74
2023/05/01 10:13:16;;;;;;;5.97;3.15;;;22.90;60.20;;;;;;4994109;28;20050;-75
2023/05/01 10:15:43;;;;;;;5.43;2.80;;;23.00;59.70;;;;;;4976893;28;20050;-75
2023/05/01 10:18:12;;;;;;;3.88;2.38;;;23.00;52.90;;;;;;4994125;28;20045;-75
2023/05/01 10:20:45;;;;;;;4.07;2.30;;;22.60;54.40;;;;;;4976748;28;20399;-75
2023/05/01 10:23:11;;;;;;;;;;;22.30;58.40;;;;;;4976692;28;20081;-75
2023/05/01 10:25:37;;;;;;;3.88;2.10;;;22.50;59.70;;;;;;4993003;28;19968;-75
2023/05/01 10:28:07;;;;;;;5.68;2.60;;;22.90;60.20;;;;;;4992704;28;20096;-75
2023/05/01 10:30:36;;;;;;;;;;;23.30;56.70;;;;;;4977526;28;20053;-74
2023/05/01 10:33:05;;;;;;;4.05;2.40;;;23.50;59.10;;;;;;4992382;28;19917;-75
2023/05/01 10:35:37;;;;;;;4.28;2.08;;;23.80;55.20;;;;;;4976226;28;20518;-75
2023/05/01 10:38:08;;;;;;;2.65;1.65;;;23.90;55.00;;;;;;4992566;28;20081;-75
2023/05/01 10:40:45;;;;;;;4.43;2.33;;;24.10;56.60;;;;;;4992493;28;20074;-75
2023/05/01 10:43:25;;;;;;;5.13;2.30;;;24.60;58.10;;;;;;4975319;28;20038;-75
2023/05/01 10:45:54;;;;;;;4.30;2.00;;;25.00;54.00;;;;;;4976375;28;20507;-75
2023/05/01 10:48:54;;;;;;;5.22;2.10;;;25.20;54.80;;;;;;4992017;28;20070;-75
2023/05/01 10:51:24;;;;;;;5.43;2.10;;;25.40;50.00;;;;;;4992375;28;20078;-75
2023/05/01 10:54:12;;;;;;;3.58;2.05;;;25.20;52.50;;;;;;4991458;28;20153;-75
2023/05/01 10:56:38;;;;;;;3.30;2.05;;;25.10;49.40;;;;;;4961116;28;20050;-75
2023/05/01 10:59:04;;;;;;;5.60;2.40;;;24.70;47.70;;;;;;4991954;28;20100;-75
2023/05/01 11:01:31;;;;;;;4.05;2.22;;;23.80;53.10;;;;;;4975991;28;20042;-75
2023/05/01 11:04:06;;;;;;;4.80;2.00;;;23.60;55.10;;;;;;4991909;28;20046;-75
2023/05/01 11:06:33;;;;;;;4.38;2.60;;;23.90;56.60;;;;;;4992119;28;20085;-76
2023/05/01 11:08:59;;;;;;;3.85;2.50;;;24.20;56.30;;;;;;4991812;28;20318;-76
2023/05/01 11:11:25;;;;;;;2.53;1.75;;;24.50;58.30;;;;;;4992084;28;20046;-76
2023/05/01 11:14:02;;;;;;;3.22;2.15;;;24.90;56.40;;;;;;4991914;28;20053;-77
2023/05/01 11:16:36;;;;;;;4.75;2.28;;;25.30;54.70;;;;;;4992266;28;20076;-76
2023/05/01 11:19:10;;;;;;;5.68;2.72;;;25.40;54.10;;;;;;4975649;28;20046;-76
2023/05/01 11:21:37;;;;;;;6.70;3.05;;;25.60;51.30;;;;;;4991652;28;20042;-76
2023/05/01 11:24:06;;;;;;;3.95;2.38;;;25.40;48.00;;;;;;4991546;28;20056;-76
2023/05/01 11:26:40;;;;;;;4.55;2.70;;;24.80;52.50;;;;;;4992063;28;20081;-76
2023/05/01 11:29:07;;;;;;;4.45;2.60;;;24.80;50.80;;;;;;4975257;28;20517;-76
2023/05/01 11:31:33;;;;;;;4.78;2.63;;;24.70;50.90;;;;;;4990984;28;20506;-76
2023/05/01 11:33:59;;;;;;;4.05;2.30;;;24.40;53.20;;;;;;4991223;28;20193;-76
2023/05/01 11:36:26;;;;;;;4.45;2.00;;;24.30;53.80;;;;;;4991648;28;20073;-76
2023/05/01 11:38:58;;;;;;;5.95;2.22;;;24.30;54.00;;;;;;4975295;28;20085;-75
2023/05/01 11:41:25;;;;;;;4.43;1.60;;;24.50;52.70;;;;;;4975167;28;20038;-76
2023/05/01 11:43:52;;;;;;;4.60;2.03;;;24.80;49.50;;;;;;4991380;28;20106;-76
2023/05/01 11:46:33;;;;;;;4.20;1.77;;;24.50;53.80;;;;;;4991548;28;20406;-76
2023/05/01 11:49:00;;;;;;;3.38;1.52;;;24.60;54.50;;;;;;4991132;28;20125;-76
2023/05/01 11:51:27;;;;;;;3.08;1.52;;;24.60;53.50;;;;;;4992718;28;20153;-76
2023/05/01 11:54:09;;;;;;;2.53;1.40;;;24.70;53.40;;;;;;4974322;28;20147;-76
2023/05/01 11:56:36;;;;;;;3.10;1.70;;;25.00;55.30;;;;;;4991195;28;20053;-76
2023/05/01 11:59:10;;;;;;;4.00;1.90;;;25.40;54.10;;;;;;4991088;28;20107;-75
2023/05/01 12:01:42;;;;;;;4.07;1.67;;;25.40;53.70;;;;;;4992697;28;20039;-76
2023/05/01 12:04:07;;;;;;;3.65;1.80;;;25.40;51.90;;;;;;4990952;28;20422;-76
2023/05/01 12:06:44;;;;;;;4.30;1.73;;;25.50;51.80;;;;;;4991239;28;20046;-76
2023/05/01 12:09:24;;;;;;;3.28;1.70;;;25.30;52.90;;;;;;4992336;28;20046;-76
2023/05/01 12:11:51;;;;;;;3.80;1.85;;;25.40;55.80;;;;;;4991073;28;20057;-76
2023/05/01 12:14:18;;;;;;;3.40;1.90;;;25.70;51.80;;;;;;4992231;28;20434;-75
2023/05/01 12:16:45;;;;;;;4.65;2.03;;;25.70;51.10;;;;;;4991113;28;20046;-76
2023/05/01 12:19:12;;;;;;;3.08;1.65;;;25.40;52.20;;;;;;5007338;28;20038;-76
2023/05/01 12:21:41;;;;;;;2.13;1.30;;;25.70;48.40;;;;;;4991045;28;20075;-76
2023/05/01 12:24:11;;;;;;;2.65;1.38;;;25.30;47.60;;;;;;4990605;28;20046;-77
2023/05/01 12:26:37;;;;;;;3.50;1.70;;;24.80;50.70;;;;;;4991179;28;20461;-77
2023/05/01 12:29:05;;;;;;;2.88;1.55;;;24.80;52.80;;;;;;4990803;28;20121;-76
2023/05/01 12:31:31;;;;;;;5.75;1.77;;;25.20;51.40;;;;;;4992594;28;20120;-76
2023/05/01 12:34:02;;;;;;;3.42;1.73;;;25.40;50.30;;;;;;4990557;28;20566;-76
2023/05/01 12:36:30;;;;;;;3.05;1.60;;;25.50;49.00;;;;;;4974556;28;20062;-77
2023/05/01 12:39:11;;;;;;;2.30;1.40;;;25.30;48.90;;;;;;4990741;28;20065;-76
2023/05/01 12:41:45;;;;;;;3.10;1.65;;;24.90;48.50;;;;;;4974772;28;20522;-76
2023/05/01 12:44:29;;;;;;;2.20;1.80;;;24.40;51.60;;;;;;4990911;28;20454;-76